sensor_id;sensor_type;location;lat;lon;timestamp;pressure;altitude;pressure_sealevel;temperature;humidity
80678;BME280;70042;52.494;5.502;2023-10-13T00:01:34;101194.66;;;19.62;72.81
80678;BME280;70042;52.494;5.502;2023-10-13T00:04:00;101190.31;;;19.60;72.50
80678;BME280;70042;52.494;5.502;2023-10-13T00:06:30;101192.09;;;19.59;72.94
80678;BME280;70042;52.494;5.502;2023-10-13T00:08:56;101186.81;;;19.59;73.15
80678;BME280;70042;52.494;5.502;2023-10-13T00:11:21;101180.56;;;19.60;72.64
80678;BME280;70042;52.494;5.502;2023-10-13T00:13:47;101177.81;;;19.63;73.12
80678;BME280;70042;52.494;5.502;2023-10-13T00:16:18;101175.16;;;19.65;72.84
80678;BME280;70042;52.494;5.502;2023-10-13T00:18:47;101176.03;;;19.65;72.73
80678;BME280;70042;52.494;5.502;2023-10-13T00:21:14;101171.59;;;19.66;72.85
80678;BME280;70042;52.494;5.502;2023-10-13T00:23:56;101166.38;;;19.63;72.71
80678;BME280;70042;52.494;5.502;2023-10-13T00:26:25;101168.19;;;19.61;72.79
80678;BME280;70042;52.494;5.502;2023-10-13T00:28:55;101169.16;;;19.58;73.18
80678;BME280;70042;52.494;5.502;2023-10-13T00:31:26;101162.97;;;19.58;72.98
80678;BME280;70042;52.494;5.502;2023-10-13T00:33:58;101165.63;;;19.58;73.01
80678;BME280;70042;52.494;5.502;2023-10-13T00:36:35;101166.56;;;19.57;72.85
80678;BME280;70042;52.494;5.502;2023-10-13T00:39:01;101155.09;;;19.56;72.71
80678;BME280;70042;52.494;5.502;2023-10-13T00:41:29;101151.50;;;19.57;73.32
80678;BME280;70042;52.494;5.502;2023-10-13T00:44:13;101145.25;;;19.60;72.89
80678;BME280;70042;52.494;5.502;2023-10-13T00:46:41;101140.81;;;19.60;72.99
80678;BME280;70042;52.494;5.502;2023-10-13T00:49:10;101146.09;;;19.60;72.99
80678;BME280;70042;52.494;5.502;2023-10-13T00:51:36;101142.66;;;19.58;72.89
80678;BME280;70042;52.494;5.502;2023-10-13T00:54:07;101145.34;;;19.57;73.08
80678;BME280;70042;52.494;5.502;2023-10-13T00:56:40;101139.19;;;19.56;73.09
80678;BME280;70042;52.494;5.502;2023-10-13T00:59:14;101143.59;;;19.56;73.10
80678;BME280;70042;52.494;5.502;2023-10-13T01:01:40;101145.38;;;19.55;72.98
80678;BME280;70042;52.494;5.502;2023-10-13T01:04:09;101137.44;;;19.55;73.10
80678;BME280;70042;52.494;5.502;2023-10-13T01:06:38;101130.38;;;19.54;73.23
80678;BME280;70042;52.494;5.502;2023-10-13T01:09:06;101125.94;;;19.55;72.80
80678;BME280;70042;52.494;5.502;2023-10-13T01:11:44;101132.84;;;19.60;73.18
80678;BME280;70042;52.494;5.502;2023-10-13T01:14:11;101116.94;;;19.62;73.20
80678;BME280;70042;52.494;5.502;2023-10-13T01:16:38;101117.81;;;19.62;73.07
80678;BME280;70042;52.494;5.502;2023-10-13T01:19:11;101116.06;;;19.61;72.71
80678;BME280;70042;52.494;5.502;2023-10-13T01:21:38;101107.19;;;19.62;72.89
80678;BME280;70042;52.494;5.502;2023-10-13T01:24:06;101112.41;;;19.65;72.94
80678;BME280;70042;52.494;5.502;2023-10-13T01:26:35;101103.59;;;19.63;72.88
80678;BME280;70042;52.494;5.502;2023-10-13T01:29:07;101103.59;;;19.63;72.92
80678;BME280;70042;52.494;5.502;2023-10-13T01:31:40;101103.56;;;19.65;72.97
80678;BME280;70042;52.494;5.502;2023-10-13T01:34:20;101105.25;;;19.67;72.78
80678;BME280;70042;52.494;5.502;2023-10-13T01:39:17;101086.69;;;19.69;72.61
80678;BME280;70042;52.494;5.502;2023-10-13T01:41:43;101080.50;;;19.68;72.73
80678;BME280;70042;52.494;5.502;2023-10-13T01:44:09;101081.38;;;19.69;72.49
80678;BME280;70042;52.494;5.502;2023-10-13T01:46:40;101082.28;;;19.68;72.54
80678;BME280;70042;52.494;5.502;2023-10-13T01:49:07;101080.59;;;19.65;72.82
80678;BME280;70042;52.494;5.502;2023-10-13T01:51:33;101072.56;;;19.68;72.57
80678;BME280;70042;52.494;5.502;2023-10-13T01:53:59;101064.69;;;19.65;72.84
80678;BME280;70042;52.494;5.502;2023-10-13T01:56:28;101069.22;;;19.62;72.88
80678;BME280;70042;52.494;5.502;2023-10-13T01:58:55;101071.06;;;19.60;72.79
80678;BME280;70042;52.494;5.502;2023-10-13T02:01:21;101067.47;;;19.61;72.95
80678;BME280;70042;52.494;5.502;2023-10-13T02:03:55;101060.34;;;19.63;72.64
80678;BME280;70042;52.494;5.502;2023-10-13T02:06:31;101051.53;;;19.62;73.02
80678;BME280;70042;52.494;5.502;2023-10-13T02:09:08;101051.47;;;19.64;72.73
80678;BME280;70042;52.494;5.502;2023-10-13T02:11:39;101049.69;;;19.64;72.59
80678;BME280;70042;52.494;5.502;2023-10-13T02:14:05;101047.03;;;19.64;72.43
80678;BME280;70042;52.494;5.502;2023-10-13T02:16:30;101046.25;;;19.61;72.66
80678;BME280;70042;52.494;5.502;2023-10-13T02:18:57;101041.91;;;19.58;72.81
80678;BME280;70042;52.494;5.502;2023-10-13T02:21:30;101041.06;;;19.58;72.96
80678;BME280;70042;52.494;5.502;2023-10-13T02:23:58;101035.81;;;19.56;73.20
80678;BME280;70042;52.494;5.502;2023-10-13T02:26:30;101042.88;;;19.56;72.97
80678;BME280;70042;52.494;5.502;2023-10-13T02:29:00;101033.06;;;19.59;72.68
80678;BME280;70042;52.494;5.502;2023-10-13T02:31:30;101027.69;;;19.62;72.99
80678;BME280;70042;52.494;5.502;2023-10-13T02:33:55;101032.97;;;19.62;72.89
80678;BME280;70042;52.494;5.502;2023-10-13T02:36:22;101021.44;;;19.63;72.91
80678;BME280;70042;52.494;5.502;2023-10-13T02:38:49;101018.78;;;19.63;72.73
80678;BME280;70042;52.494;5.502;2023-10-13T02:41:19;101009.16;;;19.61;72.93
80678;BME280;70042;52.494;5.502;2023-10-13T02:43:52;101009.16;;;19.61;72.80
80678;BME280;70042;52.494;5.502;2023-10-13T02:46:18;101008.19;;;19.63;72.76
80678;BME280;70042;52.494;5.502;2023-10-13T02:48:47;101002.06;;;19.61;72.85
80678;BME280;70042;52.494;5.502;2023-10-13T02:51:19;100989.63;;;19.63;72.79
80678;BME280;70042;52.494;5.502;2023-10-13T02:53:56;100985.16;;;19.65;72.59
80678;BME280;70042;52.494;5.502;2023-10-13T02:56:28;100984.31;;;19.63;72.90
80678;BME280;70042;52.494;5.502;2023-10-13T02:58:54;100978.13;;;19.64;72.82
80678;BME280;70042;52.494;5.502;2023-10-13T03:01:31;100978.09;;;19.66;72.94
80678;BME280;70042;52.494;5.502;2023-10-13T03:04:02;100965.75;;;19.65;72.65
80678;BME280;70042;52.494;5.502;2023-10-13T03:06:38;100965.78;;;19.63;72.95
80678;BME280;70042;52.494;5.502;2023-10-13T03:09:09;100954.25;;;19.64;72.74
80678;BME280;70042;52.494;5.502;2023-10-13T03:11:47;100948.09;;;19.64;72.65
80678;BME280;70042;52.494;5.502;2023-10-13T03:14:23;100943.66;;;19.64;72.59
80678;BME280;70042;52.494;5.502;2023-10-13T03:16:58;100931.25;;;19.66;72.45
80678;BME280;70042;52.494;5.502;2023-10-13T03:19:31;100925.88;;;19.68;72.51
80678;BME280;70042;52.494;5.502;2023-10-13T03:22:03;100932.97;;;19.67;72.58
80678;BME280;70042;52.494;5.502;2023-10-13T03:24:37;100924.13;;;19.67;72.43
80678;BME280;70042;52.494;5.502;2023-10-13T03:27:19;100914.41;;;19.67;72.42
80678;BME280;70042;52.494;5.502;2023-10-13T03:29:49;100913.53;;;19.67;72.60
80678;BME280;70042;52.494;5.502;2023-10-13T03:32:21;100908.28;;;19.65;72.88
80678;BME280;70042;52.494;5.502;2023-10-13T03:34:47;100898.59;;;19.64;72.82
80678;BME280;70042;52.494;5.502;2023-10-13T03:37:25;100885.50;;;19.60;72.82
80678;BME280;70042;52.494;5.502;2023-10-13T03:40:08;100871.50;;;19.56;72.63
80678;BME280;70042;52.494;5.502;2023-10-13T03:42:58;100860.06;;;19.54;73.04
80678;BME280;70042;52.494;5.502;2023-10-13T03:45:32;100852.09;;;19.54;73.07
80678;BME280;70042;52.494;5.502;2023-10-13T03:48:24;100845.09;;;19.53;73.10
80678;BME280;70042;52.494;5.502;2023-10-13T03:50:50;100850.22;;;19.58;72.95
80678;BME280;70042;52.494;5.502;2023-10-13T03:53:32;100841.38;;;19.59;72.98
80678;BME280;70042;52.494;5.502;2023-10-13T03:56:02;100844.81;;;19.61;72.65
80678;BME280;70042;52.494;5.502;2023-10-13T03:58:38;100843.94;;;19.60;72.81
80678;BME280;70042;52.494;5.502;2023-10-13T04:01:04;100831.56;;;19.61;72.59
80678;BME280;70042;52.494;5.502;2023-10-13T04:03:35;100828.16;;;19.57;72.59
80678;BME280;70042;52.494;5.502;2023-10-13T04:06:05;100818.53;;;19.55;73.09
80678;BME280;70042;52.494;5.502;2023-10-13T04:08:41;100808.84;;;19.54;72.97
80678;BME280;70042;52.494;5.502;2023-10-13T04:11:32;100798.28;;;19.52;73.10
80678;BME280;70042;52.494;5.502;2023-10-13T04:14:15;100781.53;;;19.52;73.01
80678;BME280;70042;52.494;5.502;2023-10-13T04:17:07;100769.13;;;19.52;73.11
80678;BME280;70042;52.494;5.502;2023-10-13T04:19:39;100760.22;;;19.55;72.99
80678;BME280;70042;52.494;5.502;2023-10-13T04:22:25;100766.28;;;19.58;73.20
80678;BME280;70042;52.494;5.502;2023-10-13T04:28:03;100746.72;;;19.62;72.71
80678;BME280;70042;52.494;5.502;2023-10-13T04:30:37;100745.16;;;19.57;72.77
80678;BME280;70042;52.494;5.502;2023-10-13T04:33:32;100741.72;;;19.53;72.77
80678;BME280;70042;52.494;5.502;2023-10-13T04:36:08;100736.44;;;19.53;72.89
80678;BME280;70042;52.494;5.502;2023-10-13T04:38:55;100734.69;;;19.52;73.15
80678;BME280;70042;52.494;5.502;2023-10-13T04:41:24;100729.28;;;19.55;72.89
80678;BME280;70042;52.494;5.502;2023-10-13T04:43:50;100730.16;;;19.56;73.20
80678;BME280;70042;52.494;5.502;2023-10-13T04:46:22;100725.72;;;19.56;73.03
80678;BME280;70042;52.494;5.502;2023-10-13T04:49:01;100725.72;;;19.56;73.42
80678;BME280;70042;52.494;5.502;2023-10-13T04:51:36;100727.44;;;19.57;73.25
80678;BME280;70042;52.494;5.502;2023-10-13T04:54:39;100707.09;;;19.58;73.14
80678;BME280;70042;52.494;5.502;2023-10-13T04:57:15;100703.59;;;19.57;72.87
80678;BME280;70042;52.494;5.502;2023-10-13T04:59:59;100704.41;;;19.59;73.06
80678;BME280;70042;52.494;5.502;2023-10-13T05:02:35;100688.50;;;19.59;72.92
80678;BME280;70042;52.494;5.502;2023-10-13T05:05:12;100689.38;;;19.60;72.96
80678;BME280;70042;52.494;5.502;2023-10-13T05:07:44;100688.50;;;19.59;73.00
80678;BME280;70042;52.494;5.502;2023-10-13T05:10:29;100686.66;;;19.61;72.86
80678;BME280;70042;52.494;5.502;2023-10-13T05:13:14;100688.50;;;19.59;72.82
80678;BME280;70042;52.494;5.502;2023-10-13T05:15:58;100679.63;;;19.60;72.83
80678;BME280;70042;52.494;5.502;2023-10-13T05:18:41;100669.03;;;19.60;72.99
80678;BME280;70042;52.494;5.502;2023-10-13T05:21:25;100646.09;;;19.59;73.08
80678;BME280;70042;52.494;5.502;2023-10-13T05:24:09;100645.25;;;19.59;72.83
80678;BME280;70042;52.494;5.502;2023-10-13T05:26:53;100647.94;;;19.57;72.75
80678;BME280;70042;52.494;5.502;2023-10-13T05:29:44;100637.31;;;19.57;73.20
80678;BME280;70042;52.494;5.502;2023-10-13T05:32:29;100653.34;;;19.54;72.96
80678;BME280;70042;52.494;5.502;2023-10-13T05:35:14;100651.66;;;19.52;73.02
80678;BME280;70042;52.494;5.502;2023-10-13T05:37:58;100646.44;;;19.50;72.85
80678;BME280;70042;52.494;5.502;2023-10-13T05:40:59;100644.59;;;19.52;72.96
80678;BME280;70042;52.494;5.502;2023-10-13T05:43:44;100628.66;;;19.54;72.82
80678;BME280;70042;52.494;5.502;2023-10-13T05:46:28;100640.91;;;19.56;72.80
80678;BME280;70042;52.494;5.502;2023-10-13T05:49:20;100635.72;;;19.53;72.99
80678;BME280;70042;52.494;5.502;2023-10-13T05:52:05;100641.16;;;19.50;73.09
80678;BME280;70042;52.494;5.502;2023-10-13T05:54:45;100632.34;;;19.48;73.28
80678;BME280;70042;52.494;5.502;2023-10-13T05:57:29;100635.09;;;19.47;73.07
80678;BME280;70042;52.494;5.502;2023-10-13T06:00:13;100647.47;;;19.46;73.94
80678;BME280;70042;52.494;5.502;2023-10-13T06:02:57;100666.00;;;19.46;73.41
80678;BME280;70042;52.494;5.502;2023-10-13T06:05:41;100663.34;;;19.46;73.53
80678;BME280;70042;52.494;5.502;2023-10-13T06:08:25;100662.44;;;19.47;73.17
80678;BME280;70042;52.494;5.502;2023-10-13T06:11:09;100651.84;;;19.47;73.43
80678;BME280;70042;52.494;5.502;2023-10-13T06:13:53;100658.94;;;19.47;73.47
80678;BME280;70042;52.494;5.502;2023-10-13T06:16:37;100633.31;;;19.47;73.42
80678;BME280;70042;52.494;5.502;2023-10-13T06:19:21;100622.63;;;19.49;73.38
80678;BME280;70042;52.494;5.502;2023-10-13T06:22:04;100609.38;;;19.49;73.63
80678;BME280;70042;52.494;5.502;2023-10-13T06:24:48;100612.91;;;19.49;73.52
80678;BME280;70042;52.494;5.502;2023-10-13T06:27:32;100615.47;;;19.51;73.49
80678;BME280;70042;52.494;5.502;2023-10-13T06:30:16;100618.09;;;19.52;73.39
80678;BME280;70042;52.494;5.502;2023-10-13T06:32:44;100618.97;;;19.53;73.64
80678;BME280;70042;52.494;5.502;2023-10-13T06:35:11;100615.41;;;19.54;73.68
80678;BME280;70042;52.494;5.502;2023-10-13T06:37:49;100618.78;;;19.57;73.63
80678;BME280;70042;52.494;5.502;2023-10-13T06:40:14;100609.81;;;19.61;73.32
80678;BME280;70042;52.494;5.502;2023-10-13T06:42:59;100604.56;;;19.60;73.03
80678;BME280;70042;52.494;5.502;2023-10-13T06:45:41;100610.81;;;19.57;73.06
80678;BME280;70042;52.494;5.502;2023-10-13T06:48:07;100604.72;;;19.55;73.73
80678;BME280;70042;52.494;5.502;2023-10-13T06:50:37;100610.81;;;19.57;73.79
80678;BME280;70042;52.494;5.502;2023-10-13T06:53:07;100612.56;;;19.58;74.35
80678;BME280;70042;52.494;5.502;2023-10-13T06:55:36;100606.34;;;19.59;75.04
80678;BME280;70042;52.494;5.502;2023-10-13T06:58:05;100606.28;;;19.61;75.08
80678;BME280;70042;52.494;5.502;2023-10-13T07:00:32;100608.88;;;19.62;75.11
80678;BME280;70042;52.494;5.502;2023-10-13T07:03:04;100596.56;;;19.61;74.69
80678;BME280;70042;52.494;5.502;2023-10-13T07:05:43;100595.63;;;19.62;75.13
80678;BME280;70042;52.494;5.502;2023-10-13T07:08:10;100594.69;;;19.63;74.55
80678;BME280;70042;52.494;5.502;2023-10-13T07:10:53;100584.09;;;19.63;74.61
80678;BME280;70042;52.494;5.502;2023-10-13T07:13:34;100584.09;;;19.63;74.46
80678;BME280;70042;52.494;5.502;2023-10-13T07:16:07;100583.25;;;19.63;73.91
80678;BME280;70042;52.494;5.502;2023-10-13T07:18:37;100584.97;;;19.64;73.91
80678;BME280;70042;52.494;5.502;2023-10-13T07:21:10;100580.59;;;19.63;74.01
80678;BME280;70042;52.494;5.502;2023-10-13T07:23:37;100562.06;;;19.63;74.12
80678;BME280;70042;52.494;5.502;2023-10-13T07:26:03;100557.59;;;19.63;73.90
80678;BME280;70042;52.494;5.502;2023-10-13T07:28:29;100540.84;;;19.63;73.65
80678;BME280;70042;52.494;5.502;2023-10-13T07:30:56;100553.22;;;19.62;73.68
80678;BME280;70042;52.494;5.502;2023-10-13T07:33:25;100533.81;;;19.62;73.69
80678;BME280;70042;52.494;5.502;2023-10-13T07:36:04;100522.34;;;19.61;74.03
80678;BME280;70042;52.494;5.502;2023-10-13T07:38:44;100530.25;;;19.63;73.81
80678;BME280;70042;52.494;5.502;2023-10-13T07:41:14;100529.31;;;19.64;73.68
80678;BME280;70042;52.494;5.502;2023-10-13T07:43:42;100533.72;;;19.63;73.72
80678;BME280;70042;52.494;5.502;2023-10-13T07:46:08;100524.09;;;19.62;73.83
80678;BME280;70042;52.494;5.502;2023-10-13T07:48:40;100517.03;;;19.61;74.02
80678;BME280;70042;52.494;5.502;2023-10-13T07:51:08;100520.56;;;19.62;73.85
80678;BME280;70042;52.494;5.502;2023-10-13T07:53:40;100499.34;;;19.62;73.96
80678;BME280;70042;52.494;5.502;2023-10-13T07:56:09;100502.88;;;19.62;73.77
80678;BME280;70042;52.494;5.502;2023-10-13T07:58:37;100514.34;;;19.63;73.72
80678;BME280;70042;52.494;5.502;2023-10-13T08:01:21;100515.19;;;19.63;73.93
80678;BME280;70042;52.494;5.502;2023-10-13T08:03:47;100516.13;;;19.62;74.01
80678;BME280;70042;52.494;5.502;2023-10-13T08:06:16;100518.78;;;19.62;73.65
80678;BME280;70042;52.494;5.502;2023-10-13T08:08:42;100498.44;;;19.63;73.70
80678;BME280;70042;52.494;5.502;2023-10-13T08:11:15;100502.88;;;19.62;73.60
80678;BME280;70042;52.494;5.502;2023-10-13T08:14:00;100485.22;;;19.61;73.73
80678;BME280;70042;52.494;5.502;2023-10-13T08:16:40;100489.66;;;19.61;73.67
80678;BME280;70042;52.494;5.502;2023-10-13T08:19:23;100488.81;;;19.60;73.55
80678;BME280;70042;52.494;5.502;2023-10-13T08:21:53;100489.75;;;19.59;73.55
80678;BME280;70042;52.494;5.502;2023-10-13T08:24:25;100479.19;;;19.58;73.72
80678;BME280;70042;52.494;5.502;2023-10-13T08:27:02;100466.88;;;19.57;73.56
80678;BME280;70042;52.494;5.502;2023-10-13T08:29:46;100470.31;;;19.59;73.57
80678;BME280;70042;52.494;5.502;2023-10-13T08:32:25;100465.91;;;19.59;73.80
80678;BME280;70042;52.494;5.502;2023-10-13T08:34:58;100464.09;;;19.60;73.86
80678;BME280;70042;52.494;5.502;2023-10-13T08:37:24;100460.59;;;19.59;73.59
80678;BME280;70042;52.494;5.502;2023-10-13T08:39:57;100459.66;;;19.60;73.48
80678;BME280;70042;52.494;5.502;2023-10-13T08:42:27;100458.72;;;19.61;73.68
80678;BME280;70042;52.494;5.502;2023-10-13T08:45:15;100457.88;;;19.61;73.50
80678;BME280;70042;52.494;5.502;2023-10-13T08:47:59;100459.66;;;19.60;73.71
80678;BME280;70042;52.494;5.502;2023-10-13T08:50:51;100464.03;;;19.61;74.48
80678;BME280;70042;52.494;5.502;2023-10-13T08:53:21;100466.63;;;19.63;74.18
80678;BME280;70042;52.494;5.502;2023-10-13T08:58:36;100434.75;;;19.64;74.28
80678;BME280;70042;52.494;5.502;2023-10-13T09:01:31;100439.06;;;19.67;74.04
80678;BME280;70042;52.494;5.502;2023-10-13T09:07:08;100430.16;;;19.69;74.23
80678;BME280;70042;52.494;5.502;2023-10-13T09:09:49;100430.16;;;19.69;74.16
80678;BME280;70042;52.494;5.502;2023-10-13T09:12:28;100423.00;;;19.72;74.09
80678;BME280;70042;52.494;5.502;2023-10-13T09:15:00;100416.91;;;19.69;73.80
80678;BME280;70042;52.494;5.502;2023-10-13T09:17:50;100419.56;;;19.69;74.21
80678;BME280;70042;52.494;5.502;2023-10-13T09:20:16;100424.00;;;19.69;74.12
80678;BME280;70042;52.494;5.502;2023-10-13T09:22:48;100410.66;;;19.70;73.70
80678;BME280;70042;52.494;5.502;2023-10-13T09:25:37;100404.56;;;19.68;73.99
80678;BME280;70042;52.494;5.502;2023-10-13T09:30:45;100395.81;;;19.66;73.77
80678;BME280;70042;52.494;5.502;2023-10-13T09:33:11;100386.94;;;19.67;73.64
80678;BME280;70042;52.494;5.502;2023-10-13T09:35:46;100399.28;;;19.68;73.59
80678;BME280;70042;52.494;5.502;2023-10-13T09:38:15;100389.56;;;19.67;74.07
80678;BME280;70042;52.494;5.502;2023-10-13T09:40:41;100374.53;;;19.68;74.10
80678;BME280;70042;52.494;5.502;2023-10-13T09:43:16;100368.38;;;19.67;73.85
80678;BME280;70042;52.494;5.502;2023-10-13T09:45:45;100368.38;;;19.67;74.01
80678;BME280;70042;52.494;5.502;2023-10-13T09:48:33;100361.38;;;19.66;73.76
80678;BME280;70042;52.494;5.502;2023-10-13T09:51:04;100356.13;;;19.65;73.64
80678;BME280;70042;52.494;5.502;2023-10-13T09:53:36;100358.75;;;19.65;74.03
80678;BME280;70042;52.494;5.502;2023-10-13T09:56:30;100362.28;;;19.65;74.33
80678;BME280;70042;52.494;5.502;2023-10-13T09:59:14;100359.63;;;19.65;74.33
80678;BME280;70042;52.494;5.502;2023-10-13T10:01:44;100357.78;;;19.67;74.15
80678;BME280;70042;52.494;5.502;2023-10-13T10:04:18;100349.81;;;19.67;74.34
80678;BME280;70042;52.494;5.502;2023-10-13T10:06:57;100341.81;;;19.69;74.24
80678;BME280;70042;52.494;5.502;2023-10-13T10:09:29;100336.44;;;19.70;74.11
80678;BME280;70042;52.494;5.502;2023-10-13T10:12:27;100332.00;;;19.71;74.90
80678;BME280;70042;52.494;5.502;2023-10-13T10:15:16;100327.56;;;19.72;74.71
80678;BME280;70042;52.494;5.502;2023-10-13T10:17:55;100322.28;;;19.72;74.54
80678;BME280;70042;52.494;5.502;2023-10-13T10:20:38;100329.31;;;19.73;74.34
80678;BME280;70042;52.494;5.502;2023-10-13T10:23:08;100331.09;;;19.72;74.15
80678;BME280;70042;52.494;5.502;2023-10-13T10:25:47;100339.03;;;19.72;73.97
80678;BME280;70042;52.494;5.502;2023-10-13T10:28:13;100322.19;;;19.73;74.32
80678;BME280;70042;52.494;5.502;2023-10-13T10:30:41;100323.88;;;19.76;74.22
80678;BME280;70042;52.494;5.502;2023-10-13T10:33:08;100322.06;;;19.76;74.14
80678;BME280;70042;52.494;5.502;2023-10-13T10:35:59;100318.56;;;19.76;74.11
80678;BME280;70042;52.494;5.502;2023-10-13T10:38:25;100309.69;;;19.77;74.14
80678;BME280;70042;52.494;5.502;2023-10-13T10:41:00;100311.41;;;19.78;73.90
80678;BME280;70042;52.494;5.502;2023-10-13T10:46:26;100309.53;;;19.80;74.00
80678;BME280;70042;52.494;5.502;2023-10-13T10:48:53;100310.38;;;19.82;73.78
80678;BME280;70042;52.494;5.502;2023-10-13T10:51:28;100303.28;;;19.82;73.93
80678;BME280;70042;52.494;5.502;2023-10-13T10:53:57;100311.16;;;19.84;73.66
80678;BME280;70042;52.494;5.502;2023-10-13T10:56:36;100298.75;;;19.84;73.87
80678;BME280;70042;52.494;5.502;2023-10-13T10:59:05;100290.81;;;19.84;73.65
80678;BME280;70042;52.494;5.502;2023-10-13T11:01:45;100294.31;;;19.85;73.44
80678;BME280;70042;52.494;5.502;2023-10-13T11:04:16;100287.25;;;19.85;73.43
80678;BME280;70042;52.494;5.502;2023-10-13T11:06:52;100284.50;;;19.87;73.49
80678;BME280;70042;52.494;5.502;2023-10-13T11:09:29;100277.47;;;19.86;73.59
80678;BME280;70042;52.494;5.502;2023-10-13T11:14:49;100263.28;;;19.87;73.36
80678;BME280;70042;52.494;5.502;2023-10-13T11:17:25;100258.06;;;19.85;73.33
80678;BME280;70042;52.494;5.502;2023-10-13T11:20:16;100254.47;;;19.86;73.57
80678;BME280;70042;52.494;5.502;2023-10-13T11:22:49;100261.56;;;19.86;73.59
80678;BME280;70042;52.494;5.502;2023-10-13T11:25:25;100256.22;;;19.87;73.59
80678;BME280;70042;52.494;5.502;2023-10-13T11:30:35;100240.34;;;19.86;73.61
80678;BME280;70042;52.494;5.502;2023-10-13T11:33:02;100238.56;;;19.86;73.47
80678;BME280;70042;52.494;5.502;2023-10-13T11:35:32;100223.53;;;19.87;73.42
80678;BME280;70042;52.494;5.502;2023-10-13T11:38:16;100224.31;;;19.89;73.54
80678;BME280;70042;52.494;5.502;2023-10-13T11:41:04;100220.00;;;19.86;73.31
80678;BME280;70042;52.494;5.502;2023-10-13T11:46:24;100216.44;;;19.87;73.50
80678;BME280;70042;52.494;5.502;2023-10-13T11:49:09;100223.53;;;19.87;73.55
80678;BME280;70042;52.494;5.502;2023-10-13T11:51:42;100214.72;;;19.86;73.51
80678;BME280;70042;52.494;5.502;2023-10-13T11:56:39;100217.44;;;19.85;73.68
80678;BME280;70042;52.494;5.502;2023-10-13T11:59:05;100226.31;;;19.84;73.60
80678;BME280;70042;52.494;5.502;2023-10-13T12:01:31;100219.16;;;19.86;73.40
80678;BME280;70042;52.494;5.502;2023-10-13T12:04:29;100224.44;;;19.86;73.57
80678;BME280;70042;52.494;5.502;2023-10-13T12:07:13;100216.44;;;19.87;73.62
80678;BME280;70042;52.494;5.502;2023-10-13T12:09:40;100215.56;;;19.87;73.56
80678;BME280;70042;52.494;5.502;2023-10-13T12:12:29;100224.31;;;19.89;73.40
80678;BME280;70042;52.494;5.502;2023-10-13T12:15:06;100225.25;;;19.88;73.36
80678;BME280;70042;52.494;5.502;2023-10-13T12:17:38;100212.88;;;19.88;73.24
80678;BME280;70042;52.494;5.502;2023-10-13T12:20:08;100222.63;;;19.88;73.27
80678;BME280;70042;52.494;5.502;2023-10-13T12:22:44;100212.94;;;19.87;72.99
80678;BME280;70042;52.494;5.502;2023-10-13T12:25:20;100219.09;;;19.87;73.30
80678;BME280;70042;52.494;5.502;2023-10-13T12:28:10;100222.63;;;19.88;73.05
80678;BME280;70042;52.494;5.502;2023-10-13T12:30:45;100217.31;;;19.88;73.35
80678;BME280;70042;52.494;5.502;2023-10-13T12:33:21;100205.84;;;19.87;73.28
80678;BME280;70042;52.494;5.502;2023-10-13T12:35:56;100203.97;;;19.89;73.11
80678;BME280;70042;52.494;5.502;2023-10-13T12:38:53;100200.53;;;19.87;73.15
80678;BME280;70042;52.494;5.502;2023-10-13T12:41:33;100198.81;;;19.86;73.04
80678;BME280;70042;52.494;5.502;2023-10-13T12:44:18;100185.63;;;19.85;73.05
80678;BME280;70042;52.494;5.502;2023-10-13T12:47:01;100206.75;;;19.86;72.84
80678;BME280;70042;52.494;5.502;2023-10-13T12:49:45;100205.84;;;19.87;73.13
80678;BME280;70042;52.494;5.502;2023-10-13T12:52:13;100204.97;;;19.87;73.00
80678;BME280;70042;52.494;5.502;2023-10-13T12:54:48;100195.16;;;19.89;73.06
80678;BME280;70042;52.494;5.502;2023-10-13T12:57:23;100203.09;;;19.89;72.92
80678;BME280;70042;52.494;5.502;2023-10-13T12:59:49;100196.81;;;19.91;73.04
80678;BME280;70042;52.494;5.502;2023-10-13T13:02:14;100196.81;;;19.91;72.99
80678;BME280;70042;52.494;5.502;2023-10-13T13:04:45;100189.78;;;19.90;72.96
80678;BME280;70042;52.494;5.502;2023-10-13T13:07:10;100192.50;;;19.89;73.05
80678;BME280;70042;52.494;5.502;2023-10-13T13:09:40;100193.44;;;19.88;73.03
80678;BME280;70042;52.494;5.502;2023-10-13T13:12:06;100203.19;;;19.87;72.69
80678;BME280;70042;52.494;5.502;2023-10-13T13:14:31;100202.31;;;19.87;72.88
80678;BME280;70042;52.494;5.502;2023-10-13T13:17:00;100198.81;;;19.86;72.96
80678;BME280;70042;52.494;5.502;2023-10-13T13:19:36;100213.72;;;19.89;72.81
80678;BME280;70042;52.494;5.502;2023-10-13T13:22:05;100222.63;;;19.88;72.82
80678;BME280;70042;52.494;5.502;2023-10-13T13:24:31;100204.91;;;19.88;72.65
80678;BME280;70042;52.494;5.502;2023-10-13T13:26:57;100185.50;;;19.88;72.52
80678;BME280;70042;52.494;5.502;2023-10-13T13:29:28;100171.28;;;19.89;73.03
80678;BME280;70042;52.494;5.502;2023-10-13T13:31:54;100171.28;;;19.89;72.56
80678;BME280;70042;52.494;5.502;2023-10-13T13:34:20;100177.53;;;19.88;73.06
80678;BME280;70042;52.494;5.502;2023-10-13T13:36:46;100193.44;;;19.88;73.32
80678;BME280;70042;52.494;5.502;2023-10-13T13:39:20;100213.72;;;19.89;73.70
80678;BME280;70042;52.494;5.502;2023-10-13T13:41:55;100203.09;;;19.89;73.67
80678;BME280;70042;52.494;5.502;2023-10-13T13:44:24;100210.13;;;19.90;73.62
80678;BME280;70042;52.494;5.502;2023-10-13T13:47:01;100196.88;;;19.90;73.66
80678;BME280;70042;52.494;5.502;2023-10-13T13:49:30;100200.41;;;19.90;73.38
80678;BME280;70042;52.494;5.502;2023-10-13T13:52:06;100193.22;;;19.92;73.67
80678;BME280;70042;52.494;5.502;2023-10-13T13:54:31;100178.19;;;19.93;73.60
80678;BME280;70042;52.494;5.502;2023-10-13T13:56:57;100164.94;;;19.93;73.51